sensor_id;sensor_type;location;lat;lon;timestamp;pressure;altitude;pressure_sealevel;temperature;humidity
36138;BME280;22194;50.046;21.954;2022-08-18T00:02:08;98619.56;;;20.06;64.36
36138;BME280;22194;50.046;21.954;2022-08-18T00:04:39;98620.27;;;20.06;64.54
36138;BME280;22194;50.046;21.954;2022-08-18T00:07:20;98621.84;;;20.05;64.61
36138;BME280;22194;50.046;21.954;2022-08-18T00:09:49;98623.02;;;20.04;64.70
36138;BME280;22194;50.046;21.954;2022-08-18T00:12:22;98625.33;;;20.03;64.70
36138;BME280;22194;50.046;21.954;2022-08-18T00:14:51;98629.45;;;20.03;64.91
36138;BME280;22194;50.046;21.954;2022-08-18T00:17:21;98633.63;;;20.04;64.91
36138;BME280;22194;50.046;21.954;2022-08-18T00:19:49;98638.48;;;20.04;64.98
36138;BME280;22194;50.046;21.954;2022-08-18T00:22:19;98635.79;;;20.03;64.94
36138;BME280;22194;50.046;21.954;2022-08-18T00:24:51;98638.03;;;20.00;64.96
36138;BME280;22194;50.046;21.954;2022-08-18T00:27:23;98642.34;;;19.99;64.98
36138;BME280;22194;50.046;21.954;2022-08-18T00:30:01;98640.79;;;19.99;65.06
36138;BME280;22194;50.046;21.954;2022-08-18T00:32:37;98640.19;;;19.98;65.24
36138;BME280;22194;50.046;21.954;2022-08-18T00:35:15;98638.15;;;19.97;65.23
36138;BME280;22194;50.046;21.954;2022-08-18T00:37:46;98644.98;;;19.95;65.38
36138;BME280;22194;50.046;21.954;2022-08-18T00:40:24;98652.01;;;19.93;65.39
36138;BME280;22194;50.046;21.954;2022-08-18T00:42:59;98652.73;;;19.92;65.51
36138;BME280;22194;50.046;21.954;2022-08-18T00:45:31;98651.80;;;19.89;65.41
36138;BME280;22194;50.046;21.954;2022-08-18T00:48:04;98647.08;;;19.86;65.47
36138;BME280;22194;50.046;21.954;2022-08-18T00:50:47;98647.71;;;19.84;65.69
36138;BME280;22194;50.046;21.954;2022-08-18T00:53:30;98649.73;;;19.82;65.66
36138;BME280;22194;50.046;21.954;2022-08-18T00:56:08;98651.39;;;19.78;65.65
36138;BME280;22194;50.046;21.954;2022-08-18T00:58:57;98651.63;;;19.75;65.76
36138;BME280;22194;50.046;21.954;2022-08-18T01:01:30;98655.81;;;19.72;65.81
36138;BME280;22194;50.046;21.954;2022-08-18T01:04:21;98658.20;;;19.68;65.81
36138;BME280;22194;50.046;21.954;2022-08-18T01:07:06;98664.42;;;19.65;65.79
36138;BME280;22194;50.046;21.954;2022-08-18T01:09:37;98661.90;;;19.62;65.92
36138;BME280;22194;50.046;21.954;2022-08-18T01:12:06;98664.14;;;19.58;65.91
36138;BME280;22194;50.046;21.954;2022-08-18T01:14:57;98661.23;;;19.54;65.95
36138;BME280;22194;50.046;21.954;2022-08-18T01:17:26;98663.52;;;19.50;66.10
36138;BME280;22194;50.046;21.954;2022-08-18T01:20:17;98669.61;;;19.47;66.16
36138;BME280;22194;50.046;21.954;2022-08-18T01:23:16;98677.22;;;19.43;66.34
36138;BME280;22194;50.046;21.954;2022-08-18T01:25:45;98679.78;;;19.41;66.27
36138;BME280;22194;50.046;21.954;2022-08-18T01:28:32;98685.77;;;19.39;66.37
36138;BME280;22194;50.046;21.954;2022-08-18T01:31:01;98683.48;;;19.37;66.36
36138;BME280;22194;50.046;21.954;2022-08-18T01:33:38;98681.75;;;19.35;66.37
36138;BME280;22194;50.046;21.954;2022-08-18T01:36:15;98675.50;;;19.33;66.50
36138;BME280;22194;50.046;21.954;2022-08-18T01:38:47;98673.19;;;19.31;66.57
36138;BME280;22194;50.046;21.954;2022-08-18T01:41:18;98668.67;;;19.30;66.68
36138;BME280;22194;50.046;21.954;2022-08-18T01:43:58;98665.00;;;19.29;66.72
36138;BME280;22194;50.046;21.954;2022-08-18T01:46:29;98662.38;;;19.27;66.67
36138;BME280;22194;50.046;21.954;2022-08-18T01:48:59;98662.23;;;19.25;66.81
36138;BME280;22194;50.046;21.954;2022-08-18T01:51:30;98668.70;;;19.24;66.69
36138;BME280;22194;50.046;21.954;2022-08-18T01:54:12;98676.48;;;19.22;66.83
36138;BME280;22194;50.046;21.954;2022-08-18T01:56:41;98683.45;;;19.19;66.82
36138;BME280;22194;50.046;21.954;2022-08-18T01:59:10;98689.76;;;19.15;66.81
36138;BME280;22194;50.046;21.954;2022-08-18T02:01:44;98684.23;;;19.14;66.93
36138;BME280;22194;50.046;21.954;2022-08-18T02:04:24;98675.45;;;19.10;66.97
36138;BME280;22194;50.046;21.954;2022-08-18T02:07:09;98674.52;;;19.07;67.00
36138;BME280;22194;50.046;21.954;2022-08-18T02:09:40;98669.47;;;19.06;67.08
36138;BME280;22194;50.046;21.954;2022-08-18T02:12:08;98667.30;;;19.04;67.23
36138;BME280;22194;50.046;21.954;2022-08-18T02:14:37;98668.04;;;19.04;67.25
36138;BME280;22194;50.046;21.954;2022-08-18T02:17:08;98667.23;;;19.03;67.28
36138;BME280;22194;50.046;21.954;2022-08-18T02:19:43;98670.95;;;19.02;67.31
36138;BME280;22194;50.046;21.954;2022-08-18T02:22:16;98679.07;;;19.00;67.35
36138;BME280;22194;50.046;21.954;2022-08-18T02:24:45;98682.73;;;18.99;67.52
36138;BME280;22194;50.046;21.954;2022-08-18T02:27:15;98679.31;;;18.98;67.53
36138;BME280;22194;50.046;21.954;2022-08-18T02:29:43;98680.59;;;18.98;67.57
36138;BME280;22194;50.046;21.954;2022-08-18T02:32:11;98678.14;;;18.97;67.53
36138;BME280;22194;50.046;21.954;2022-08-18T02:34:40;98670.75;;;18.96;67.64
36138;BME280;22194;50.046;21.954;2022-08-18T02:37:09;98664.90;;;18.94;67.66
36138;BME280;22194;50.046;21.954;2022-08-18T02:39:43;98664.40;;;18.92;67.71
36138;BME280;22194;50.046;21.954;2022-08-18T02:42:13;98667.71;;;18.89;67.73
36138;BME280;22194;50.046;21.954;2022-08-18T02:44:41;98665.23;;;18.87;67.73
36138;BME280;22194;50.046;21.954;2022-08-18T02:47:09;98661.83;;;18.86;67.79
36138;BME280;22194;50.046;21.954;2022-08-18T02:49:38;98660.02;;;18.83;67.85
36138;BME280;22194;50.046;21.954;2022-08-18T02:52:06;98667.25;;;18.76;67.74
36138;BME280;22194;50.046;21.954;2022-08-18T02:54:33;98676.69;;;18.67;67.77
36138;BME280;22194;50.046;21.954;2022-08-18T02:57:07;98680.73;;;18.61;68.04
36138;BME280;22194;50.046;21.954;2022-08-18T02:59:38;98678.35;;;18.60;68.19
36138;BME280;22194;50.046;21.954;2022-08-18T03:02:08;98673.30;;;18.60;68.29
36138;BME280;22194;50.046;21.954;2022-08-18T03:04:37;98676.09;;;18.61;68.33
36138;BME280;22194;50.046;21.954;2022-08-18T03:07:07;98681.55;;;18.60;68.26
36138;BME280;22194;50.046;21.954;2022-08-18T03:09:36;98678.88;;;18.58;68.31
36138;BME280;22194;50.046;21.954;2022-08-18T03:12:05;98681.59;;;18.58;68.34
36138;BME280;22194;50.046;21.954;2022-08-18T03:14:36;98680.25;;;18.57;68.46
36138;BME280;22194;50.046;21.954;2022-08-18T03:17:06;98684.79;;;18.57;68.36
36138;BME280;22194;50.046;21.954;2022-08-18T03:19:36;98686.05;;;18.55;68.51
36138;BME280;22194;50.046;21.954;2022-08-18T03:22:07;98689.31;;;18.55;68.50
36138;BME280;22194;50.046;21.954;2022-08-18T03:24:56;98699.05;;;18.53;68.57
36138;BME280;22194;50.046;21.954;2022-08-18T03:27:25;98703.49;;;18.52;68.55
36138;BME280;22194;50.046;21.954;2022-08-18T03:29:54;98700.20;;;18.49;68.66
36138;BME280;22194;50.046;21.954;2022-08-18T03:32:25;98699.27;;;18.46;68.68
36138;BME280;22194;50.046;21.954;2022-08-18T03:34:53;98696.27;;;18.44;68.73
36138;BME280;22194;50.046;21.954;2022-08-18T03:37:21;98696.34;;;18.43;68.79
36138;BME280;22194;50.046;21.954;2022-08-18T03:39:48;98695.54;;;18.43;68.89
36138;BME280;22194;50.046;21.954;2022-08-18T03:42:19;98692.88;;;18.41;68.72
36138;BME280;22194;50.046;21.954;2022-08-18T03:44:48;98693.66;;;18.40;68.88
36138;BME280;22194;50.046;21.954;2022-08-18T03:47:16;98696.65;;;18.39;68.93
36138;BME280;22194;50.046;21.954;2022-08-18T03:49:45;98697.02;;;18.39;68.93
36138;BME280;22194;50.046;21.954;2022-08-18T03:52:13;98704.18;;;18.39;68.99
36138;BME280;22194;50.046;21.954;2022-08-18T03:54:41;98708.10;;;18.38;68.86
36138;BME280;22194;50.046;21.954;2022-08-18T03:57:11;98715.50;;;18.36;68.95
36138;BME280;22194;50.046;21.954;2022-08-18T03:59:40;98724.38;;;18.32;68.88
36138;BME280;22194;50.046;21.954;2022-08-18T04:02:10;98726.92;;;18.27;68.91
36138;BME280;22194;50.046;21.954;2022-08-18T04:04:39;98730.42;;;18.19;68.59
36138;BME280;22194;50.046;21.954;2022-08-18T04:07:11;98735.75;;;18.10;68.76
36138;BME280;22194;50.046;21.954;2022-08-18T04:09:44;98744.02;;;18.00;68.87
36138;BME280;22194;50.046;21.954;2022-08-18T04:12:14;98744.65;;;17.94;68.99
36138;BME280;22194;50.046;21.954;2022-08-18T04:14:46;98741.77;;;17.91;69.29
36138;BME280;22194;50.046;21.954;2022-08-18T04:17:20;98744.02;;;17.90;69.45
36138;BME280;22194;50.046;21.954;2022-08-18T04:19:54;98739.69;;;17.90;69.62
36138;BME280;22194;50.046;21.954;2022-08-18T04:22:24;98741.56;;;17.87;69.51
36138;BME280;22194;50.046;21.954;2022-08-18T04:24:53;98752.73;;;17.83;69.22
36138;BME280;22194;50.046;21.954;2022-08-18T04:27:21;98760.15;;;17.80;69.41
36138;BME280;22194;50.046;21.954;2022-08-18T04:29:49;98760.88;;;17.78;69.45
36138;BME280;22194;50.046;21.954;2022-08-18T04:32:17;98758.46;;;17.77;69.72
36138;BME280;22194;50.046;21.954;2022-08-18T04:34:46;98753.17;;;17.76;69.80
36138;BME280;22194;50.046;21.954;2022-08-18T04:37:15;98756.48;;;17.77;69.78
36138;BME280;22194;50.046;21.954;2022-08-18T04:39:44;98756.69;;;17.77;69.78
36138;BME280;22194;50.046;21.954;2022-08-18T04:42:13;98756.61;;;17.78;70.03
36138;BME280;22194;50.046;21.954;2022-08-18T04:44:41;98751.87;;;17.78;70.12
36138;BME280;22194;50.046;21.954;2022-08-18T04:47:09;98747.14;;;17.79;69.91
36138;BME280;22194;50.046;21.954;2022-08-18T04:49:37;98743.67;;;17.78;70.14
36138;BME280;22194;50.046;21.954;2022-08-18T04:52:06;98743.34;;;17.79;70.30
36138;BME280;22194;50.046;21.954;2022-08-18T04:55:08;98743.71;;;17.84;70.51
36138;BME280;22194;50.046;21.954;2022-08-18T04:57:37;98740.39;;;17.88;70.49
36138;BME280;22194;50.046;21.954;2022-08-18T05:00:07;98735.80;;;17.93;70.50
36138;BME280;22194;50.046;21.954;2022-08-18T05:02:40;98730.33;;;17.95;70.47
36138;BME280;22194;50.046;21.954;2022-08-18T05:05:08;98728.63;;;17.97;70.34
36138;BME280;22194;50.046;21.954;2022-08-18T05:07:42;98727.67;;;18.02;70.56
36138;BME280;22194;50.046;21.954;2022-08-18T05:10:13;98733.90;;;18.07;70.81
36138;BME280;22194;50.046;21.954;2022-08-18T05:12:46;98736.33;;;18.13;70.81
36138;BME280;22194;50.046;21.954;2022-08-18T05:15:15;98736.81;;;18.18;70.92
36138;BME280;22194;50.046;21.954;2022-08-18T05:17:45;98736.29;;;18.23;70.71
36138;BME280;22194;50.046;21.954;2022-08-18T05:20:18;98731.94;;;18.28;70.90
36138;BME280;22194;50.046;21.954;2022-08-18T05:22:48;98727.33;;;18.33;70.95
36138;BME280;22194;50.046;21.954;2022-08-18T05:25:15;98721.35;;;18.38;70.98
36138;BME280;22194;50.046;21.954;2022-08-18T05:27:44;98724.48;;;18.44;71.14
36138;BME280;22194;50.046;21.954;2022-08-18T05:30:12;98720.57;;;18.52;71.28
36138;BME280;22194;50.046;21.954;2022-08-18T05:32:44;98726.40;;;18.59;71.31
36138;BME280;22194;50.046;21.954;2022-08-18T05:35:24;98729.39;;;18.66;71.42
36138;BME280;22194;50.046;21.954;2022-08-18T05:41:19;98730.78;;;18.83;71.43
36138;BME280;22194;50.046;21.954;2022-08-18T05:43:50;98732.81;;;18.92;71.37
36138;BME280;22194;50.046;21.954;2022-08-18T05:46:47;98735.27;;;19.01;71.40
36138;BME280;22194;50.046;21.954;2022-08-18T05:49:14;98733.04;;;19.11;71.65
36138;BME280;22194;50.046;21.954;2022-08-18T05:52:05;98738.52;;;19.20;71.69
36138;BME280;22194;50.046;21.954;2022-08-18T05:55:03;98735.95;;;19.30;71.87
36138;BME280;22194;50.046;21.954;2022-08-18T05:58:03;98738.96;;;19.40;71.89
36138;BME280;22194;50.046;21.954;2022-08-18T06:00:35;98734.90;;;19.48;71.81
36138;BME280;22194;50.046;21.954;2022-08-18T06:03:40;98737.86;;;19.56;72.01
36138;BME280;22194;50.046;21.954;2022-08-18T06:06:19;98739.15;;;19.65;71.81
36138;BME280;22194;50.046;21.954;2022-08-18T06:09:10;98737.41;;;19.73;71.85
36138;BME280;22194;50.046;21.954;2022-08-18T06:11:39;98741.32;;;19.83;71.98
36138;BME280;22194;50.046;21.954;2022-08-18T06:14:07;98747.13;;;19.92;71.88
36138;BME280;22194;50.046;21.954;2022-08-18T06:19:40;98754.86;;;20.10;72.04
36138;BME280;22194;50.046;21.954;2022-08-18T06:22:24;98753.64;;;20.18;72.02
36138;BME280;22194;50.046;21.954;2022-08-18T06:28:09;98763.02;;;20.35;72.03
36138;BME280;22194;50.046;21.954;2022-08-18T06:30:57;98763.52;;;20.43;72.05
36138;BME280;22194;50.046;21.954;2022-08-18T06:36:21;98766.11;;;20.61;72.26
36138;BME280;22194;50.046;21.954;2022-08-18T06:41:43;98769.77;;;20.80;72.02
36138;BME280;22194;50.046;21.954;2022-08-18T06:46:58;98776.16;;;20.98;72.25
36138;BME280;22194;50.046;21.954;2022-08-18T06:49:44;98779.15;;;21.06;72.37
36138;BME280;22194;50.046;21.954;2022-08-18T06:55:11;98781.19;;;21.25;72.16
36138;BME280;22194;50.046;21.954;2022-08-18T06:57:58;98778.17;;;21.33;72.14
36138;BME280;22194;50.046;21.954;2022-08-18T07:00:29;98775.36;;;21.43;71.95
36138;BME280;22194;50.046;21.954;2022-08-18T07:03:02;98770.66;;;21.52;72.06
36138;BME280;22194;50.046;21.954;2022-08-18T07:05:36;98774.77;;;21.58;72.13
36138;BME280;22194;50.046;21.954;2022-08-18T07:08:14;98772.49;;;21.68;72.03
36138;BME280;22194;50.046;21.954;2022-08-18T07:10:48;98775.64;;;21.78;72.02
36138;BME280;22194;50.046;21.954;2022-08-18T07:13:22;98778.92;;;21.88;71.89
36138;BME280;22194;50.046;21.954;2022-08-18T07:16:13;98772.04;;;22.14;71.88
36138;BME280;22194;50.046;21.954;2022-08-18T07:18:47;98767.00;;;23.54;70.08
36138;BME280;22194;50.046;21.954;2022-08-18T07:21:31;98773.81;;;25.03;69.40
36138;BME280;22194;50.046;21.954;2022-08-18T07:24:05;98774.50;;;26.63;68.98
36138;BME280;22194;50.046;21.954;2022-08-18T07:27:08;98771.80;;;28.22;68.56
36138;BME280;22194;50.046;21.954;2022-08-18T07:29:58;98775.23;;;29.41;68.54
36138;BME280;22194;50.046;21.954;2022-08-18T07:32:34;98781.69;;;30.70;68.35
36138;BME280;22194;50.046;21.954;2022-08-18T07:35:06;98780.05;;;31.47;67.24
36138;BME280;22194;50.046;21.954;2022-08-18T07:37:45;98775.55;;;32.30;67.19
36138;BME280;22194;50.046;21.954;2022-08-18T07:43:35;98772.71;;;34.31;66.31
36138;BME280;22194;50.046;21.954;2022-08-18T07:46:15;98770.80;;;35.53;65.63
36138;BME280;22194;50.046;21.954;2022-08-18T07:48:45;98770.28;;;36.56;65.21
36138;BME280;22194;50.046;21.954;2022-08-18T07:54:26;98774.66;;;38.15;63.53
36138;BME280;22194;50.046;21.954;2022-08-18T07:57:22;98777.14;;;38.45;63.18
36138;BME280;22194;50.046;21.954;2022-08-18T08:00:03;98774.73;;;38.31;62.08
36138;BME280;22194;50.046;21.954;2022-08-18T08:20:06;98779.70;;;40.68;57.59
36138;BME280;22194;50.046;21.954;2022-08-18T08:23:04;98780.85;;;39.70;56.88
36138;BME280;22194;50.046;21.954;2022-08-18T08:28:41;98782.86;;;39.49;55.56
36138;BME280;22194;50.046;21.954;2022-08-18T08:34:50;98774.21;;;40.62;53.95
36138;BME280;22194;50.046;21.954;2022-08-18T08:37:29;98776.03;;;41.03;53.41
36138;BME280;22194;50.046;21.954;2022-08-18T08:40:21;98777.42;;;40.76;51.99
36138;BME280;22194;50.046;21.954;2022-08-18T08:43:00;98778.98;;;40.20;51.77
36138;BME280;22194;50.046;21.954;2022-08-18T08:45:34;98778.29;;;39.75;51.66
36138;BME280;22194;50.046;21.954;2022-08-18T08:48:13;98780.52;;;39.57;50.76
36138;BME280;22194;50.046;21.954;2022-08-18T08:50:50;98783.10;;;38.36;49.02
36138;BME280;22194;50.046;21.954;2022-08-18T08:53:29;98776.88;;;38.01;48.85
36138;BME280;22194;50.046;21.954;2022-08-18T08:56:08;98773.77;;;37.72;48.04
36138;BME280;22194;50.046;21.954;2022-08-18T08:58:55;98772.52;;;37.79;47.93
36138;BME280;22194;50.046;21.954;2022-08-18T09:05:22;98769.14;;;38.36;47.79
36138;BME280;22194;50.046;21.954;2022-08-18T09:11:02;98764.01;;;38.43;46.75
36138;BME280;22194;50.046;21.954;2022-08-18T09:19:44;98757.91;;;38.93;45.57
36138;BME280;22194;50.046;21.954;2022-08-18T09:28:12;98760.42;;;37.94;43.64
36138;BME280;22194;50.046;21.954;2022-08-18T09:36:29;98743.23;;;38.83;43.25
36138;BME280;22194;50.046;21.954;2022-08-18T09:39:13;98746.22;;;38.65;42.88
36138;BME280;22194;50.046;21.954;2022-08-18T09:42:13;98743.55;;;38.40;42.27
36138;BME280;22194;50.046;21.954;2022-08-18T09:52:59;98740.83;;;37.91;41.17
36138;BME280;22194;50.046;21.954;2022-08-18T09:55:54;98741.09;;;38.02;40.77
36138;BME280;22194;50.046;21.954;2022-08-18T10:01:19;98737.86;;;37.66;41.24
36138;BME280;22194;50.046;21.954;2022-08-18T10:12:31;98753.39;;;34.36;39.81
36138;BME280;22194;50.046;21.954;2022-08-18T10:18:05;98749.63;;;34.17;40.10
36138;BME280;22194;50.046;21.954;2022-08-18T10:21:01;98744.83;;;34.11;39.95
36138;BME280;22194;50.046;21.954;2022-08-18T10:23:49;98749.60;;;33.92;39.61
36138;BME280;22194;50.046;21.954;2022-08-18T10:40:23;98754.86;;;32.10;39.75
36138;BME280;22194;50.046;21.954;2022-08-18T10:43:08;98754.33;;;31.88;39.42
36138;BME280;22194;50.046;21.954;2022-08-18T10:45:58;98755.25;;;31.55;39.61
36138;BME280;22194;50.046;21.954;2022-08-18T10:51:54;98760.48;;;31.11;39.91
36138;BME280;22194;50.046;21.954;2022-08-18T11:00:16;98763.25;;;30.56;40.22
36138;BME280;22194;50.046;21.954;2022-08-18T11:03:01;98765.14;;;30.57;40.39
36138;BME280;22194;50.046;21.954;2022-08-18T11:06:03;98766.56;;;30.64;40.48
36138;BME280;22194;50.046;21.954;2022-08-18T11:08:46;98771.77;;;30.66;40.67
36138;BME280;22194;50.046;21.954;2022-08-18T11:11:28;98772.55;;;30.70;40.73
36138;BME280;22194;50.046;21.954;2022-08-18T11:14:16;98774.14;;;30.74;40.73
36138;BME280;22194;50.046;21.954;2022-08-18T11:19:44;98775.70;;;30.39;40.80
36138;BME280;22194;50.046;21.954;2022-08-18T11:22:32;98772.19;;;30.35;40.92
36138;BME280;22194;50.046;21.954;2022-08-18T11:25:19;98770.36;;;30.31;41.13
36138;BME280;22194;50.046;21.954;2022-08-18T11:27:53;98770.23;;;30.24;41.07
36138;BME280;22194;50.046;21.954;2022-08-18T11:30:31;98772.96;;;30.20;41.12
36138;BME280;22194;50.046;21.954;2022-08-18T11:33:05;98765.41;;;30.18;41.27
36138;BME280;22194;50.046;21.954;2022-08-18T11:36:02;98760.92;;;30.15;41.10
36138;BME280;22194;50.046;21.954;2022-08-18T11:38:30;98757.20;;;30.05;41.26
36138;BME280;22194;50.046;21.954;2022-08-18T11:41:11;98754.52;;;29.92;41.13
36138;BME280;22194;50.046;21.954;2022-08-18T11:43:46;98754.08;;;29.74;41.23
36138;BME280;22194;50.046;21.954;2022-08-18T11:49:11;98754.29;;;29.50;41.41
36138;BME280;22194;50.046;21.954;2022-08-18T11:52:03;98745.55;;;29.46;41.51
36138;BME280;22194;50.046;21.954;2022-08-18T11:54:41;98734.67;;;29.47;41.63
36138;BME280;22194;50.046;21.954;2022-08-18T11:57:52;98734.31;;;29.51;41.75
36138;BME280;22194;50.046;21.954;2022-08-18T12:05:49;98724.48;;;29.53;41.89
36138;BME280;22194;50.046;21.954;2022-08-18T12:08:33;98719.61;;;29.57;41.97
36138;BME280;22194;50.046;21.954;2022-08-18T12:11:31;98718.44;;;29.59;42.04
36138;BME280;22194;50.046;21.954;2022-08-18T12:14:05;98717.52;;;29.56;41.93
36138;BME280;22194;50.046;21.954;2022-08-18T12:16:55;98712.50;;;29.55;42.14
36138;BME280;22194;50.046;21.954;2022-08-18T12:19:25;98715.60;;;29.56;42.01
36138;BME280;22194;50.046;21.954;2022-08-18T12:22:17;98712.08;;;29.55;42.16
36138;BME280;22194;50.046;21.954;2022-08-18T12:24:50;98706.39;;;29.55;42.19
36138;BME280;22194;50.046;21.954;2022-08-18T12:27:22;98704.38;;;29.53;42.17
36138;BME280;22194;50.046;21.954;2022-08-18T12:30:01;98700.03;;;29.53;42.14
36138;BME280;22194;50.046;21.954;2022-08-18T12:32:31;98695.20;;;29.49;42.03
36138;BME280;22194;50.046;21.954;2022-08-18T12:35:20;98696.77;;;29.42;42.17
36138;BME280;22194;50.046;21.954;2022-08-18T12:37:50;98695.91;;;29.43;42.36
36138;BME280;22194;50.046;21.954;2022-08-18T12:40:26;98694.11;;;29.50;42.59
36138;BME280;22194;50.046;21.954;2022-08-18T12:42:54;98698.38;;;29.58;42.61
36138;BME280;22194;50.046;21.954;2022-08-18T12:45:27;98688.90;;;29.67;42.69
36138;BME280;22194;50.046;21.954;2022-08-18T12:47:57;98693.73;;;29.78;42.75
36138;BME280;22194;50.046;21.954;2022-08-18T12:50:34;98693.28;;;29.85;42.82
36138;BME280;22194;50.046;21.954;2022-08-18T12:53:24;98693.17;;;29.95;42.95
36138;BME280;22194;50.046;21.954;2022-08-18T12:56:27;98694.61;;;30.04;43.04
36138;BME280;22194;50.046;21.954;2022-08-18T12:59:03;98694.02;;;30.16;42.97
36138;BME280;22194;50.046;21.954;2022-08-18T13:01:35;98690.53;;;30.24;43.04
36138;BME280;22194;50.046;21.954;2022-08-18T13:04:07;98680.98;;;30.34;43.16
36138;BME280;22194;50.046;21.954;2022-08-18T13:06:53;98682.60;;;30.40;43.09
36138;BME280;22194;50.046;21.954;2022-08-18T13:09:32;98675.89;;;30.47;43.23
36138;BME280;22194;50.046;21.954;2022-08-18T13:12:23;98666.10;;;30.53;43.14
36138;BME280;22194;50.046;21.954;2022-08-18T13:14:52;98658.77;;;30.56;43.09
36138;BME280;22194;50.046;21.954;2022-08-18T13:17:25;98656.38;;;30.62;43.17
36138;BME280;22194;50.046;21.954;2022-08-18T13:20:06;98654.86;;;30.64;43.15
36138;BME280;22194;50.046;21.954;2022-08-18T13:22:38;98656.33;;;30.55;43.11
36138;BME280;22194;50.046;21.954;2022-08-18T13:25:13;98649.84;;;30.44;43.41
36138;BME280;22194;50.046;21.954;2022-08-18T13:28:05;98645.73;;;30.30;43.23
36138;BME280;22194;50.046;21.954;2022-08-18T13:30:33;98652.59;;;30.18;43.31
36138;BME280;22194;50.046;21.954;2022-08-18T13:33:03;98654.91;;;30.08;43.36
36138;BME280;22194;50.046;21.954;2022-08-18T13:35:53;98658.36;;;29.99;43.37
36138;BME280;22194;50.046;21.954;2022-08-18T13:38:23;98654.15;;;29.86;43.35
36138;BME280;22194;50.046;21.954;2022-08-18T13:40:58;98651.41;;;29.73;43.45
36138;BME280;22194;50.046;21.954;2022-08-18T13:43:33;98648.23;;;29.62;43.46
36138;BME280;22194;50.046;21.954;2022-08-18T13:46:06;98645.73;;;29.52;43.53
36138;BME280;22194;50.046;21.954;2022-08-18T13:48:37;98644.14;;;29.40;43.29
36138;BME280;22194;50.046;21.954;2022-08-18T13:51:12;98641.46;;;29.30;43.47
36138;BME280;22194;50.046;21.954;2022-08-18T13:53:42;98643.25;;;29.24;43.75
36138;BME280;22194;50.046;21.954;2022-08-18T13:56:26;98638.43;;;29.19;43.57
36138;BME280;22194;50.046;21.954;2022-08-18T13:58:59;98638.30;;;29.15;43.67
36138;BME280;22194;50.046;21.954;2022-08-18T14:01:32;98637.44;;;29.08;43.66
36138;BME280;22194;50.046;21.954;2022-08-18T14:04:20;98641.73;;;29.04;43.66
36138;BME280;22194;50.046;21.954;2022-08-18T14:06:50;98642.77;;;29.01;43.90
36138;BME280;22194;50.046;21.954;2022-08-18T14:09:28;98638.69;;;28.94;43.95
36138;BME280;22194;50.046;21.954;2022-08-18T14:12:17;98636.52;;;28.90;44.09
36138;BME280;22194;50.046;21.954;2022-08-18T14:14:52;98638.20;;;28.86;44.26
36138;BME280;22194;50.046;21.954;2022-08-18T14:17:24;98640.91;;;28.83;44.18
36138;BME280;22194;50.046;21.954;2022-08-18T14:19:54;98634.13;;;28.80;44.39
36138;BME280;22194;50.046;21.954;2022-08-18T14:22:53;98635.07;;;28.78;44.56
36138;BME280;22194;50.046;21.954;2022-08-18T14:25:52;98639.87;;;28.75;44.50
36138;BME280;22194;50.046;21.954;2022-08-18T14:28:39;98634.33;;;28.70;44.50
36138;BME280;22194;50.046;21.954;2022-08-18T14:31:09;98638.30;;;28.66;44.56
36138;BME280;22194;50.046;21.954;2022-08-18T14:33:49;98640.50;;;28.64;44.68
36138;BME280;22194;50.046;21.954;2022-08-18T14:36:23;98642.52;;;28.61;44.61
36138;BME280;22194;50.046;21.954;2022-08-18T14:39:00;98646.66;;;28.58;44.72
36138;BME280;22194;50.046;21.954;2022-08-18T14:41:30;98639.51;;;28.57;44.76
36138;BME280;22194;50.046;21.954;2022-08-18T14:43:57;98639.39;;;28.54;44.87
36138;BME280;22194;50.046;21.954;2022-08-18T14:46:43;98628.04;;;28.51;44.79
36138;BME280;22194;50.046;21.954;2022-08-18T14:49:23;98633.02;;;28.51;44.79
36138;BME280;22194;50.046;21.954;2022-08-18T14:52:00;98628.13;;;28.51;44.70
36138;BME280;22194;50.046;21.954;2022-08-18T14:54:28;98622.09;;;28.50;44.66
36138;BME280;22194;50.046;21.954;2022-08-18T14:56:59;98623.77;;;28.46;44.92
36138;BME280;22194;50.046;21.954;2022-08-18T14:59:29;98621.21;;;28.45;44.83
36138;BME280;22194;50.046;21.954;2022-08-18T15:02:07;98624.42;;;28.44;44.77
36138;BME280;22194;50.046;21.954;2022-08-18T15:04:42;98627.09;;;28.46;44.90
36138;BME280;22194;50.046;21.954;2022-08-18T15:07:25;98627.46;;;28.48;44.91
36138;BME280;22194;50.046;21.954;2022-08-18T15:09:53;98636.55;;;28.51;45.06
36138;BME280;22194;50.046;21.954;2022-08-18T15:12:45;98634.46;;;28.52;44.94
36138;BME280;22194;50.046;21.954;2022-08-18T15:15:15;98641.88;;;28.55;45.29
36138;BME280;22194;50.046;21.954;2022-08-18T15:17:46;98639.30;;;28.57;45.14
36138;BME280;22194;50.046;21.954;2022-08-18T15:20:24;98645.69;;;28.59;45.07
36138;BME280;22194;50.046;21.954;2022-08-18T15:23:02;98643.69;;;28.62;45.15
36138;BME280;22194;50.046;21.954;2022-08-18T15:25:56;98641.83;;;28.62;45.31
36138;BME280;22194;50.046;21.954;2022-08-18T15:28:26;98639.76;;;28.60;45.21
36138;BME280;22194;50.046;21.954;2022-08-18T15:30:55;98641.18;;;28.61;45.17
36138;BME280;22194;50.046;21.954;2022-08-18T15:33:43;98645.04;;;28.62;45.23
36138;BME280;22194;50.046;21.954;2022-08-18T15:36:17;98642.20;;;28.62;45.17
36138;BME280;22194;50.046;21.954;2022-08-18T15:38:59;98643.27;;;28.63;45.13
36138;BME280;22194;50.046;21.954;2022-08-18T15:41:35;98642.28;;;28.63;44.96
36138;BME280;22194;50.046;21.954;2022-08-18T15:44:17;98643.52;;;28.65;45.05
36138;BME280;22194;50.046;21.954;2022-08-18T15:46:49;98641.69;;;28.66;45.10
36138;BME280;22194;50.046;21.954;2022-08-18T15:49:20;98637.62;;;28.67;45.01
36138;BME280;22194;50.046;21.954;2022-08-18T15:51:50;98636.64;;;28.68;45.31